Time;durP1;ratioP1;P1;durP2;ratioP2;P2;SDS_P1;SDS_P2;PMS_P1;PMS_P2;Temp;Humidity;BMP_temperature;BMP_pressure;BME280_temperature;BME280_humidity;BME280_pressure;Samples;Min_cycle;Max_cycle;Signal;HPM_P1;HPM_P2
2022/01/30 00:02:04;;;;;;;3.17;1.40;;;6.40;97.30;;;;;;5070718;28;20461;-83
2022/01/30 00:04:30;;;;;;;8.70;1.90;;;6.40;97.30;;;;;;5069703;28;20166;-83
2022/01/30 00:06:55;;;;;;;4.20;1.50;;;6.40;97.30;;;;;;5076599;28;20174;-83
2022/01/30 00:09:22;;;;;;;5.00;2.20;;;6.40;97.30;;;;;;5076133;28;20202;-83
2022/01/30 00:11:53;;;;;;;5.30;1.63;;;6.40;97.30;;;;;;5073666;28;20297;-83
2022/01/30 00:14:21;;;;;;;4.57;1.40;;;6.40;97.30;;;;;;5073709;28;20402;-82
2022/01/30 00:16:55;;;;;;;3.93;2.00;;;6.40;97.30;;;;;;5055938;28;20492;-83
2022/01/30 00:19:27;;;;;;;4.60;1.60;;;6.40;97.30;;;;;;5073275;28;20449;-84
2022/01/30 00:22:11;;;;;;;4.57;1.80;;;6.40;97.30;;;;;;5055647;28;20835;-83
2022/01/30 00:24:56;;;;;;;5.27;2.10;;;6.40;97.30;;;;;;5055905;28;20410;-83
2022/01/30 00:27:31;;;;;;;7.23;1.70;;;6.40;97.30;;;;;;5056541;28;20484;-82
2022/01/30 00:29:57;;;;;;;6.90;1.40;;;6.40;97.30;;;;;;5061207;28;20416;-82
2022/01/30 00:32:23;;;;;;;6.23;2.70;;;6.50;97.30;;;;;;5071199;28;20441;-82
2022/01/30 00:34:48;;;;;;;6.27;2.10;;;6.50;97.30;;;;;;5061533;28;20451;-82
2022/01/30 00:37:15;;;;;;;9.60;2.33;;;6.50;97.30;;;;;;5074541;28;20202;-82
2022/01/30 00:39:40;;;;;;;17.50;3.97;;;6.50;97.30;;;;;;5093817;28;20198;-82
2022/01/30 00:42:06;;;;;;;4.20;1.93;;;6.50;97.30;;;;;;5070419;28;20448;-84
2022/01/30 00:44:32;;;;;;;6.07;1.93;;;6.40;97.30;;;;;;5055300;28;20612;-83
2022/01/30 00:46:58;;;;;;;8.90;2.70;;;6.40;97.30;;;;;;5054262;28;20691;-82
2022/01/30 00:49:24;;;;;;;4.20;1.80;;;6.30;97.30;;;;;;5072348;28;20171;-82
2022/01/30 00:51:50;;;;;;;16.63;2.37;;;6.30;97.30;;;;;;5054568;28;20981;-83
2022/01/30 00:54:15;;;;;;;9.50;2.10;;;6.30;97.30;;;;;;5068334;28;20452;-82
2022/01/30 00:56:41;;;;;;;9.10;2.13;;;6.30;97.30;;;;;;5074595;28;20231;-83
2022/01/30 00:59:06;;;;;;;19.83;2.80;;;6.30;97.30;;;;;;5077047;28;20186;-82
2022/01/30 01:01:32;;;;;;;13.57;2.30;;;6.20;97.30;;;;;;5070707;28;20807;-81
2022/01/30 01:03:58;;;;;;;13.10;2.37;;;6.20;97.30;;;;;;5076051;28;20228;-82
2022/01/30 01:06:24;;;;;;;7.40;3.00;;;6.10;97.30;;;;;;5081482;28;20170;-82
2022/01/30 01:08:54;;;;;;;9.40;2.10;;;6.10;97.30;;;;;;5076384;28;20509;-82
2022/01/30 01:24:10;;;;;;;20.60;2.30;;;6.20;97.30;;;;;;5077988;28;20507;-82
2022/01/30 01:26:37;;;;;;;6.80;1.87;;;6.20;97.30;;;;;;5078900;28;20429;-83
2022/01/30 01:29:03;;;;;;;11.13;2.50;;;6.20;97.30;;;;;;5092247;28;20417;-82
2022/01/30 01:31:29;;;;;;;15.07;2.40;;;6.10;97.30;;;;;;5097439;28;20428;-82
2022/01/30 01:34:08;;;;;;;12.63;2.77;;;6.10;97.30;;;;;;5079821;28;20442;-82
2022/01/30 01:36:34;;;;;;;4.47;1.83;;;6.10;97.30;;;;;;5072933;28;20587;-83
2022/01/30 01:38:59;;;;;;;11.50;2.07;;;6.10;97.30;;;;;;5068389;28;20505;-82
2022/01/30 01:41:26;;;;;;;8.97;2.30;;;6.10;97.30;;;;;;5058826;28;20207;-82
2022/01/30 01:43:52;;;;;;;8.73;2.10;;;6.10;97.30;;;;;;5060512;28;20183;-82
2022/01/30 01:46:24;;;;;;;12.90;2.30;;;6.10;97.30;;;;;;5078729;28;20419;-82
2022/01/30 01:48:52;;;;;;;10.40;2.20;;;6.00;97.30;;;;;;5067801;28;20429;-83
2022/01/30 01:51:21;;;;;;;6.13;1.60;;;6.00;97.30;;;;;;5076619;28;20486;-83
2022/01/30 01:53:49;;;;;;;7.13;1.83;;;6.00;97.30;;;;;;5058578;28;20409;-82
2022/01/30 01:56:16;;;;;;;6.00;1.73;;;6.00;97.30;;;;;;5059652;28;20420;-82
2022/01/30 01:58:42;;;;;;;10.10;2.60;;;6.00;97.30;;;;;;5077016;28;20524;-83
2022/01/30 02:01:08;;;;;;;9.07;1.90;;;6.10;97.30;;;;;;5078763;28;20554;-82
2022/01/30 02:03:39;;;;;;;13.37;1.80;;;6.10;97.30;;;;;;5078722;28;20424;-82
2022/01/30 02:06:07;;;;;;;8.43;2.03;;;6.10;97.30;;;;;;5078398;28;20705;-82
2022/01/30 02:08:41;;;;;;;9.60;1.67;;;6.10;97.30;;;;;;5056182;28;20541;-82
2022/01/30 02:11:49;;;;;;;7.53;1.67;;;6.00;97.00;;;;;;5055872;28;20521;-82
2022/01/30 02:24:52;;;;;;;5.97;1.67;;;5.80;96.80;;;;;;5077282;28;20458;-82
2022/01/30 02:27:22;;;;;;;2.00;1.40;;;5.70;96.80;;;;;;5066084;28;20415;-82
2022/01/30 02:29:48;;;;;;;6.87;2.17;;;5.70;97.00;;;;;;5078132;28;20453;-82
2022/01/30 02:32:14;;;;;;;5.33;1.50;;;5.70;97.00;;;;;;5068275;28;20520;-82
2022/01/30 02:34:39;;;;;;;4.53;1.60;;;5.60;96.80;;;;;;5063959;28;20220;-83
2022/01/30 02:37:05;;;;;;;10.27;1.57;;;5.70;96.30;;;;;;5077979;28;20990;-83
2022/01/30 02:39:32;;;;;;;2.40;1.70;;;5.70;96.30;;;;;;5095864;28;20236;-83
2022/01/30 02:41:57;;;;;;;6.07;1.40;;;5.80;95.70;;;;;;5077193;28;20425;-83
2022/01/30 02:47:39;;;;;;;5.80;2.27;;;5.80;95.80;;;;;;5005513;28;20176;-83
2022/01/30 02:52:32;;;;;;;8.60;1.70;;;6.00;95.80;;;;;;5075249;28;20429;-82
2022/01/30 02:54:58;;;;;;;4.70;1.70;;;6.00;96.00;;;;;;5056602;28;20421;-83
2022/01/30 02:57:24;;;;;;;13.90;1.70;;;6.00;96.30;;;;;;5075121;28;20512;-82
2022/01/30 02:59:50;;;;;;;5.13;1.67;;;5.90;96.50;;;;;;5057121;28;20285;-83
2022/01/30 03:02:17;;;;;;;12.87;2.10;;;5.90;96.30;;;;;;5073687;28;20261;-83
2022/01/30 03:04:42;;;;;;;7.00;1.50;;;5.90;96.40;;;;;;5076658;28;20789;-82
2022/01/30 03:07:08;;;;;;;3.03;1.53;;;5.90;96.20;;;;;;5076778;28;20405;-83
2022/01/30 03:09:35;;;;;;;6.83;1.50;;;5.90;96.50;;;;;;5077418;28;20182;-82
2022/01/30 03:12:00;;;;;;;3.37;1.37;;;5.90;96.40;;;;;;5095166;28;20186;-83
2022/01/30 03:14:26;;;;;;;1.77;1.07;;;5.90;96.60;;;;;;5095079;28;20446;-82
2022/01/30 03:16:51;;;;;;;9.87;1.67;;;5.90;96.30;;;;;;5077303;28;20424;-82
2022/01/30 03:19:17;;;;;;;3.80;1.53;;;5.90;96.00;;;;;;5072297;28;20644;-82
2022/01/30 03:21:43;;;;;;;6.00;1.50;;;5.90;96.30;;;;;;5076814;28;20207;-83
2022/01/30 03:24:08;;;;;;;7.00;1.63;;;5.90;96.00;;;;;;5075961;28;20606;-83
2022/01/30 03:26:38;;;;;;;8.47;1.97;;;5.80;96.20;;;;;;5076012;28;20170;-82
2022/01/30 03:29:06;;;;;;;7.73;1.97;;;5.80;96.40;;;;;;5075647;28;20715;-83
2022/01/30 03:31:37;;;;;;;8.30;1.60;;;5.70;96.40;;;;;;5066626;28;20503;-82
2022/01/30 03:34:04;;;;;;;15.20;2.73;;;5.70;96.30;;;;;;5094433;28;20400;-83
2022/01/30 03:36:30;;;;;;;14.53;2.50;;;5.80;95.90;;;;;;5076211;28;20419;-83
2022/01/30 03:38:55;;;;;;;10.90;2.10;;;5.70;95.80;;;;;;5075992;28;20416;-83
2022/01/30 03:41:21;;;;;;;9.73;1.87;;;5.70;95.60;;;;;;5058338;28;20465;-82
2022/01/30 03:43:46;;;;;;;7.43;1.70;;;5.70;95.30;;;;;;5073516;28;20163;-83
2022/01/30 03:46:12;;;;;;;13.70;2.60;;;5.70;95.50;;;;;;5056387;28;20179;-83
2022/01/30 03:48:38;;;;;;;6.60;1.67;;;5.70;95.00;;;;;;5055959;28;20221;-83
2022/01/30 03:51:03;;;;;;;8.50;1.83;;;5.70;94.80;;;;;;5055762;28;20203;-82
2022/01/30 03:53:31;;;;;;;12.60;2.23;;;5.70;94.60;;;;;;5073647;28;20642;-83
2022/01/30 03:55:56;;;;;;;8.27;1.73;;;5.70;94.60;;;;;;5065171;28;20566;-83
2022/01/30 03:58:22;;;;;;;3.77;1.47;;;5.60;94.40;;;;;;5076045;28;20420;-83
2022/01/30 04:00:47;;;;;;;4.50;1.63;;;5.70;94.00;;;;;;5093784;28;20226;-83
2022/01/30 04:03:13;;;;;;;5.63;2.00;;;5.70;94.00;;;;;;5076721;28;20178;-83
2022/01/30 04:05:38;;;;;;;4.90;1.70;;;5.70;93.70;;;;;;5076658;28;20222;-82
2022/01/30 04:08:04;;;;;;;4.67;2.13;;;5.70;93.70;;;;;;5076958;28;20182;-83
2022/01/30 04:10:31;;;;;;;9.37;2.00;;;5.80;93.40;;;;;;5058209;28;20244;-83
2022/01/30 04:12:57;;;;;;;6.70;1.87;;;5.80;93.50;;;;;;5055992;28;20183;-82
2022/01/30 04:15:23;;;;;;;8.10;1.50;;;5.80;93.50;;;;;;5086548;28;20849;-83
2022/01/30 04:17:48;;;;;;;4.97;1.50;;;5.80;93.10;;;;;;5072512;28;20183;-82
2022/01/30 04:20:15;;;;;;;7.23;2.00;;;5.80;93.00;;;;;;5056749;28;20460;-83
2022/01/30 04:22:40;;;;;;;6.90;2.40;;;5.90;92.80;;;;;;5056292;28;20664;-82
2022/01/30 04:25:06;;;;;;;7.40;1.70;;;5.90;93.00;;;;;;5060474;28;20454;-84
2022/01/30 04:27:31;;;;;;;4.03;1.80;;;5.90;93.00;;;;;;5056992;28;20282;-82
2022/01/30 04:29:57;;;;;;;3.83;1.30;;;5.90;93.10;;;;;;5076337;28;20179;-83
2022/01/30 04:32:25;;;;;;;9.73;1.97;;;5.90;93.30;;;;;;5093848;28;20213;-83
2022/01/30 04:34:56;;;;;;;7.30;2.47;;;5.90;93.10;;;;;;5066411;28;20175;-84
2022/01/30 04:37:34;;;;;;;9.53;2.17;;;5.90;92.90;;;;;;5055723;28;20421;-83
2022/01/30 04:40:39;;;;;;;5.60;1.60;;;5.90;92.90;;;;;;5066277;28;20481;-83
2022/01/30 04:52:03;;;;;;;3.33;1.10;;;5.90;93.00;;;;;;5094144;28;20411;-84
2022/01/30 05:04:24;;;;;;;8.77;2.20;;;5.80;94.10;;;;;;5073488;28;20426;-82
2022/01/30 05:09:24;;;;;;;8.13;2.03;;;5.90;94.40;;;;;;5085642;28;20489;-83
2022/01/30 05:11:50;;;;;;;30.90;3.63;;;5.80;94.80;;;;;;5093287;28;20416;-83
2022/01/30 05:14:16;;;;;;;6.73;2.00;;;5.90;94.30;;;;;;5074880;28;20420;-84
2022/01/30 05:16:42;;;;;;;10.50;2.73;;;5.90;94.40;;;;;;5093200;28;20178;-81
2022/01/30 05:19:08;;;;;;;15.70;2.60;;;5.90;94.20;;;;;;5069841;28;20413;-84
2022/01/30 05:21:34;;;;;;;17.60;2.00;;;5.80;94.20;;;;;;5075143;28;20202;-83
2022/01/30 05:23:59;;;;;;;5.00;1.63;;;5.90;94.10;;;;;;5075749;28;20170;-83
2022/01/30 05:26:26;;;;;;;10.07;2.20;;;5.80;94.30;;;;;;5074331;28;20231;-83
2022/01/30 05:28:52;;;;;;;13.00;2.73;;;5.80;94.30;;;;;;5072191;28;20876;-83
2022/01/30 05:31:18;;;;;;;14.87;2.50;;;5.80;94.40;;;;;;5074722;28;20481;-83
2022/01/30 05:33:44;;;;;;;8.20;2.20;;;5.80;94.30;;;;;;5072266;28;20408;-84
2022/01/30 05:36:10;;;;;;;11.83;2.63;;;5.80;94.40;;;;;;5054869;28;20183;-83
2022/01/30 05:38:36;;;;;;;6.37;2.33;;;5.80;94.50;;;;;;5055011;28;20490;-83
2022/01/30 05:41:02;;;;;;;5.27;1.63;;;5.70;94.60;;;;;;5054582;28;20552;-84
2022/01/30 05:43:30;;;;;;;8.60;2.03;;;5.80;94.50;;;;;;5055093;28;20227;-83
2022/01/30 05:46:08;;;;;;;12.63;2.37;;;5.80;94.20;;;;;;5054480;28;20413;-83
2022/01/30 05:48:34;;;;;;;10.57;2.13;;;5.80;94.20;;;;;;5054677;28;20915;-83
2022/01/30 05:50:59;;;;;;;8.70;2.17;;;5.80;94.30;;;;;;5074361;28;20447;-82
2022/01/30 05:53:25;;;;;;;6.73;2.20;;;5.70;94.60;;;;;;5058628;28;20175;-83
2022/01/30 05:55:51;;;;;;;15.57;2.03;;;5.70;94.80;;;;;;5074375;28;20179;-82
2022/01/30 05:58:17;;;;;;;15.07;3.43;;;5.70;94.60;;;;;;5096213;28;20186;-83
2022/01/30 06:00:42;;;;;;;10.60;3.23;;;5.70;94.50;;;;;;5078645;28;20472;-82
2022/01/30 06:03:08;;;;;;;7.60;1.67;;;5.70;94.50;;;;;;5097436;28;20190;-83
2022/01/30 06:05:33;;;;;;;11.23;2.30;;;5.80;94.40;;;;;;5069576;28;20175;-83
2022/01/30 06:08:09;;;;;;;11.40;2.20;;;5.70;94.40;;;;;;5079479;28;20179;-82
2022/01/30 06:10:35;;;;;;;8.53;2.10;;;5.70;94.40;;;;;;5078819;28;20198;-83
2022/01/30 06:13:00;;;;;;;7.23;2.00;;;5.80;94.40;;;;;;5066311;28;20487;-83
2022/01/30 06:15:26;;;;;;;4.00;1.93;;;5.70;94.70;;;;;;5058610;28;20195;-83
2022/01/30 06:17:52;;;;;;;14.03;2.10;;;5.70;94.80;;;;;;5058616;28;20230;-82
2022/01/30 06:20:17;;;;;;;11.20;2.00;;;5.70;94.90;;;;;;5069138;28;20268;-82
2022/01/30 06:22:43;;;;;;;11.90;2.20;;;5.70;94.90;;;;;;5063466;28;20168;-82
2022/01/30 06:25:09;;;;;;;8.50;1.93;;;5.60;94.90;;;;;;5058047;28;20643;-82
2022/01/30 06:27:35;;;;;;;5.77;2.00;;;5.60;94.60;;;;;;5095383;28;20151;-83
2022/01/30 06:30:03;;;;;;;9.13;2.50;;;5.60;95.00;;;;;;5077799;28;20424;-84
2022/01/30 06:32:28;;;;;;;12.00;1.70;;;5.60;95.20;;;;;;5068543;28;20442;-82
2022/01/30 06:34:54;;;;;;;10.70;2.80;;;5.60;95.00;;;;;;5054299;28;20501;-83
2022/01/30 06:37:19;;;;;;;9.13;2.00;;;5.60;95.10;;;;;;5095326;28;20253;-84
2022/01/30 06:39:45;;;;;;;23.20;2.37;;;5.60;94.70;;;;;;5057606;28;20662;-84
2022/01/30 06:42:11;;;;;;;8.33;2.50;;;5.60;95.10;;;;;;5056515;28;20266;-83
2022/01/30 06:44:37;;;;;;;12.50;3.00;;;5.50;95.20;;;;;;5053940;28;20267;-83
2022/01/30 06:47:03;;;;;;;13.67;2.50;;;5.40;95.50;;;;;;5055055;28;20411;-82
2022/01/30 06:49:29;;;;;;;8.23;2.40;;;5.40;95.60;;;;;;5074977;28;20464;-82
2022/01/30 06:51:54;;;;;;;16.40;3.10;;;5.40;95.60;;;;;;5057019;28;20433;-83
2022/01/30 06:54:20;;;;;;;8.17;2.60;;;5.40;95.60;;;;;;5056985;28;20267;-83
2022/01/30 06:56:45;;;;;;;8.53;2.43;;;5.30;96.00;;;;;;5057310;28;20171;-83
2022/01/30 06:59:11;;;;;;;9.93;2.37;;;5.30;95.90;;;;;;5057174;28;20179;-82
2022/01/30 07:01:36;;;;;;;16.03;2.57;;;5.40;96.00;;;;;;5064071;28;20246;-84
2022/01/30 07:04:02;;;;;;;25.90;4.00;;;5.30;95.90;;;;;;5092140;28;20172;-82
2022/01/30 07:06:28;;;;;;;6.03;1.80;;;5.30;95.90;;;;;;5073283;28;20174;-83
2022/01/30 07:08:53;;;;;;;12.90;2.67;;;5.30;95.90;;;;;;5075765;28;20175;-83
2022/01/30 07:11:19;;;;;;;15.70;2.80;;;5.30;95.60;;;;;;5091965;28;20707;-83
2022/01/30 07:13:44;;;;;;;18.90;3.00;;;5.30;95.60;;;;;;5061307;28;20179;-82
2022/01/30 07:16:10;;;;;;;13.93;2.67;;;5.30;95.80;;;;;;5074592;28;20179;-83
2022/01/30 07:18:35;;;;;;;12.67;2.60;;;5.30;96.00;;;;;;5075213;28;20175;-84
2022/01/30 07:21:03;;;;;;;10.53;2.20;;;5.20;96.10;;;;;;5074247;28;20249;-83
2022/01/30 07:23:29;;;;;;;7.73;2.60;;;5.30;96.20;;;;;;5056275;28;20207;-83
2022/01/30 07:25:55;;;;;;;12.43;2.70;;;5.30;96.30;;;;;;5055844;28;21046;-83
2022/01/30 07:28:20;;;;;;;6.40;1.83;;;5.20;96.70;;;;;;5074155;28;20477;-83
2022/01/30 07:30:46;;;;;;;9.67;2.20;;;5.20;96.80;;;;;;5056635;28;20203;-83
2022/01/30 07:33:11;;;;;;;16.23;2.93;;;5.20;96.90;;;;;;5056317;28;20178;-83
2022/01/30 07:35:39;;;;;;;6.13;2.10;;;5.20;97.00;;;;;;5062018;28;20187;-83
2022/01/30 07:38:05;;;;;;;7.70;2.67;;;5.20;97.20;;;;;;5072294;28;20182;-84
2022/01/30 07:40:34;;;;;;;11.43;2.90;;;5.20;97.30;;;;;;5055305;28;20855;-83
2022/01/30 07:43:00;;;;;;;8.57;3.00;;;5.20;97.30;;;;;;5055845;28;20417;-83
2022/01/30 07:45:26;;;;;;;10.57;3.03;;;5.20;97.30;;;;;;5055638;28;20509;-82
2022/01/30 07:47:51;;;;;;;14.60;2.93;;;5.30;97.30;;;;;;5055926;28;20588;-83
2022/01/30 07:50:18;;;;;;;18.60;3.20;;;5.30;97.30;;;;;;5055746;28;20207;-83
2022/01/30 07:52:44;;;;;;;7.67;2.37;;;5.30;97.30;;;;;;5074030;28;20938;-83
2022/01/30 07:55:10;;;;;;;9.90;2.20;;;5.30;97.30;;;;;;5053891;28;20180;-83
2022/01/30 07:57:35;;;;;;;7.73;2.30;;;5.30;97.30;;;;;;5055425;28;20179;-84
2022/01/30 08:00:01;;;;;;;10.03;3.03;;;5.30;97.30;;;;;;5053130;28;20618;-84
2022/01/30 08:02:26;;;;;;;21.73;3.90;;;5.30;97.30;;;;;;5073234;28;20242;-84
2022/01/30 08:04:55;;;;;;;16.57;3.87;;;5.30;97.30;;;;;;5055755;28;20421;-83
2022/01/30 08:07:21;;;;;;;16.43;3.73;;;5.30;96.90;;;;;;5051435;28;20172;-83
2022/01/30 08:09:47;;;;;;;14.80;2.97;;;5.40;96.80;;;;;;5051109;28;20445;-85
2022/01/30 08:12:12;;;;;;;11.13;2.77;;;5.40;96.80;;;;;;5053910;28;20466;-82
2022/01/30 08:14:38;;;;;;;22.03;3.10;;;5.40;96.70;;;;;;5054469;28;20198;-84
2022/01/30 08:17:04;;;;;;;12.33;3.10;;;5.40;96.50;;;;;;5072898;28;20179;-83
2022/01/30 08:19:29;;;;;;;25.60;5.10;;;5.40;96.00;;;;;;5054838;28;20320;-84
2022/01/30 08:21:57;;;;;;;21.83;5.10;;;5.50;95.70;;;;;;5073223;28;20190;-84
2022/01/30 08:24:24;;;;;;;20.20;3.10;;;5.60;95.30;;;;;;5055642;28;20173;-84
2022/01/30 08:26:52;;;;;;;19.70;2.73;;;5.60;95.50;;;;;;5055526;28;20410;-83
2022/01/30 08:29:18;;;;;;;14.60;3.00;;;5.60;95.40;;;;;;5055624;28;20848;-83
2022/01/30 08:31:43;;;;;;;12.40;3.30;;;5.60;95.50;;;;;;5054910;28;20525;-84
2022/01/30 08:34:09;;;;;;;47.27;6.27;;;5.60;95.70;;;;;;5055055;28;20209;-84
2022/01/30 08:36:34;;;;;;;10.13;3.07;;;5.60;95.90;;;;;;5073321;28;20245;-85
2022/01/30 08:39:00;;;;;;;24.63;3.00;;;5.60;95.90;;;;;;5055276;28;20179;-83
2022/01/30 08:41:26;;;;;;;26.07;3.87;;;5.60;96.10;;;;;;5055274;28;20276;-84
2022/01/30 08:43:51;;;;;;;14.00;2.40;;;5.60;95.80;;;;;;5073126;28;20668;-83
2022/01/30 08:46:17;;;;;;;16.60;3.73;;;5.60;96.10;;;;;;5054973;28;20171;-84
2022/01/30 08:48:43;;;;;;;14.30;2.93;;;5.60;95.90;;;;;;5055178;28;20257;-83
2022/01/30 08:51:09;;;;;;;18.17;3.60;;;5.70;95.30;;;;;;5055160;28;20273;-83
2022/01/30 08:53:34;;;;;;;18.53;3.07;;;5.70;95.30;;;;;;5054550;28;20422;-83
2022/01/30 08:56:03;;;;;;;12.73;2.80;;;5.70;95.20;;;;;;5055222;28;20424;-83
2022/01/30 08:58:29;;;;;;;9.67;3.80;;;5.70;95.10;;;;;;5055017;28;20317;-83
2022/01/30 09:00:55;;;;;;;10.40;3.30;;;5.70;95.10;;;;;;5072155;28;21149;-83
2022/01/30 09:03:20;;;;;;;16.90;3.27;;;5.80;94.50;;;;;;5055131;28;20491;-83
2022/01/30 09:05:46;;;;;;;16.17;3.00;;;5.80;94.20;;;;;;5073156;28;20556;-83
2022/01/30 09:08:13;;;;;;;36.17;3.50;;;5.80;94.10;;;;;;5055096;28;20167;-83
2022/01/30 09:10:39;;;;;;;18.83;3.70;;;5.80;93.80;;;;;;5054642;28;20272;-84
2022/01/30 09:13:06;;;;;;;15.57;3.17;;;5.80;93.90;;;;;;5054440;28;20421;-84
2022/01/30 09:15:38;;;;;;;10.30;2.40;;;5.90;93.50;;;;;;5054240;28;20418;-83
2022/01/30 09:18:08;;;;;;;30.10;4.80;;;6.00;93.60;;;;;;5054057;28;20472;-84
2022/01/30 09:20:34;;;;;;;10.37;2.60;;;6.10;93.30;;;;;;5053980;28;20551;-85
2022/01/30 09:23:00;;;;;;;6.03;2.17;;;6.20;92.90;;;;;;5054529;28;20409;-86
2022/01/30 09:25:27;;;;;;;15.00;3.70;;;6.20;92.90;;;;;;5073081;28;20405;-84
2022/01/30 09:27:52;;;;;;;14.00;2.60;;;6.20;92.90;;;;;;5058754;28;20167;-85
2022/01/30 09:30:18;;;;;;;14.30;2.50;;;6.10;93.40;;;;;;5058027;28;20891;-85
2022/01/30 09:32:43;;;;;;;17.10;2.53;;;6.10;93.20;;;;;;5058338;28;20178;-84
2022/01/30 09:35:09;;;;;;;11.30;3.57;;;6.10;93.20;;;;;;5058110;28;20225;-83
2022/01/30 09:37:35;;;;;;;16.00;3.60;;;6.10;93.80;;;;;;5058245;28;20270;-84
2022/01/30 09:40:01;;;;;;;17.70;2.70;;;6.20;93.70;;;;;;5075994;28;20540;-83
2022/01/30 09:42:27;;;;;;;19.87;3.70;;;6.30;93.20;;;;;;5058242;28;20198;-83
2022/01/30 09:44:52;;;;;;;16.87;3.00;;;6.30;92.80;;;;;;5057943;28;20449;-83
2022/01/30 09:47:18;;;;;;;18.70;2.70;;;6.30;93.20;;;;;;5058085;28;20194;-84
2022/01/30 09:49:48;;;;;;;11.53;2.60;;;6.20;93.00;;;;;;5056695;28;20660;-82
2022/01/30 09:52:14;;;;;;;10.50;2.17;;;6.20;92.80;;;;;;5058523;28;20498;-84
2022/01/30 09:54:40;;;;;;;19.47;2.90;;;6.20;92.70;;;;;;5075708;28;20496;-82
2022/01/30 09:57:05;;;;;;;14.00;2.60;;;6.20;92.80;;;;;;5059428;28;20175;-83
2022/01/30 09:59:31;;;;;;;8.20;2.77;;;6.20;92.60;;;;;;5058632;28;20580;-83
2022/01/30 10:01:57;;;;;;;12.30;2.33;;;6.20;92.90;;;;;;5057995;28;20226;-83
2022/01/30 10:04:23;;;;;;;17.27;3.93;;;6.30;92.40;;;;;;5060126;28;20429;-84
2022/01/30 10:06:52;;;;;;;16.97;2.80;;;6.30;92.70;;;;;;5059914;28;20178;-81
2022/01/30 10:09:31;;;;;;;15.40;3.40;;;6.20;92.10;;;;;;5076933;28;20195;-81
2022/01/30 10:15:01;;;;;;;10.03;3.43;;;6.20;93.00;;;;;;5066316;28;20410;-83
2022/01/30 10:17:28;;;;;;;16.10;3.80;;;6.30;92.60;;;;;;5058133;28;20403;-81
2022/01/30 10:20:15;;;;;;;22.50;4.70;;;6.40;91.60;;;;;;5077150;28;20445;-82
2022/01/30 10:22:55;;;;;;;12.70;3.53;;;6.40;91.50;;;;;;5059605;28;20420;-81
2022/01/30 10:25:21;;;;;;;9.30;2.90;;;6.40;91.30;;;;;;5057774;28;20416;-83
2022/01/30 10:27:47;;;;;;;16.60;2.83;;;6.50;91.10;;;;;;5058641;28;20425;-82
2022/01/30 10:30:20;;;;;;;18.00;4.13;;;6.50;91.00;;;;;;5058555;28;20207;-81
2022/01/30 10:32:56;;;;;;;15.27;2.63;;;6.50;91.40;;;;;;5058324;28;20406;-82
2022/01/30 10:35:22;;;;;;;19.03;3.90;;;6.50;91.50;;;;;;5059353;28;20429;-82
2022/01/30 10:37:48;;;;;;;17.93;3.10;;;6.50;91.00;;;;;;5059221;28;20418;-81
2022/01/30 10:40:27;;;;;;;18.17;3.00;;;6.50;91.60;;;;;;5057969;28;20960;-82
2022/01/30 10:42:53;;;;;;;16.50;3.50;;;6.60;91.10;;;;;;5058834;28;20425;-82
2022/01/30 10:45:18;;;;;;;14.20;2.80;;;6.60;91.50;;;;;;5058279;28;20496;-83
2022/01/30 10:47:45;;;;;;;11.43;2.30;;;6.60;90.80;;;;;;5058451;28;20191;-82
2022/01/30 10:50:17;;;;;;;16.97;3.37;;;6.50;90.80;;;;;;5076120;28;20603;-82
2022/01/30 10:53:01;;;;;;;18.30;3.80;;;6.50;91.00;;;;;;5077827;28;21026;-81
2022/01/30 10:55:42;;;;;;;15.97;3.40;;;6.50;91.10;;;;;;5037340;28;20445;-80
2022/01/30 10:58:12;;;;;;;11.60;2.50;;;6.50;90.90;;;;;;5044775;28;20426;-82
2022/01/30 11:00:41;;;;;;;25.90;3.23;;;6.50;90.70;;;;;;5056172;28;20457;-80
2022/01/30 11:03:08;;;;;;;10.70;2.53;;;6.40;90.60;;;;;;5057584;28;20430;-81
2022/01/30 11:06:14;;;;;;;20.60;3.70;;;6.40;90.50;;;;;;5057116;28;20767;-82
2022/01/30 11:08:45;;;;;;;17.80;3.40;;;6.40;90.50;;;;;;4996558;28;20447;-80
2022/01/30 11:11:28;;;;;;;14.43;3.30;;;6.40;91.00;;;;;;4996266;28;20471;-81
2022/01/30 11:14:14;;;;;;;20.33;3.33;;;6.40;90.70;;;;;;5052625;28;20899;-80
2022/01/30 11:16:58;;;;;;;16.73;3.83;;;6.40;90.40;;;;;;5057056;28;20413;-83
2022/01/30 11:19:25;;;;;;;18.43;2.83;;;6.40;90.80;;;;;;5057026;28;20462;-82
2022/01/30 11:21:53;;;;;;;24.70;3.70;;;6.30;90.90;;;;;;5076889;28;20433;-82
2022/01/30 11:24:23;;;;;;;16.03;3.20;;;6.30;91.60;;;;;;5058105;28;20512;-83
2022/01/30 11:26:48;;;;;;;14.93;3.87;;;6.30;91.50;;;;;;5057538;28;20410;-82
2022/01/30 11:29:16;;;;;;;11.97;3.00;;;6.30;91.80;;;;;;5057084;28;20455;-82
2022/01/30 11:31:42;;;;;;;13.93;3.50;;;6.30;91.10;;;;;;5085251;28;20209;-82
2022/01/30 11:34:08;;;;;;;22.10;3.33;;;6.30;91.40;;;;;;5081585;28;20441;-83
2022/01/30 11:36:40;;;;;;;14.67;3.77;;;6.30;91.80;;;;;;5074445;28;21086;-81
2022/01/30 11:39:07;;;;;;;15.63;3.70;;;6.30;91.90;;;;;;5055871;28;20630;-81
2022/01/30 11:41:35;;;;;;;10.90;3.13;;;6.30;91.50;;;;;;5055915;28;20500;-82
2022/01/30 11:44:19;;;;;;;19.47;4.87;;;6.30;91.60;;;;;;5056628;28;20471;-81
2022/01/30 11:46:58;;;;;;;13.87;4.10;;;6.30;91.60;;;;;;5055911;28;20461;-82
2022/01/30 11:49:40;;;;;;;11.30;3.40;;;6.30;91.60;;;;;;5055221;28;20413;-82
2022/01/30 11:52:09;;;;;;;18.63;3.53;;;6.30;91.40;;;;;;5055926;28;20444;-82
2022/01/30 11:54:41;;;;;;;14.90;3.10;;;6.30;91.70;;;;;;5055866;28;20775;-82
2022/01/30 11:57:22;;;;;;;22.63;3.40;;;6.30;91.60;;;;;;5056337;28;20539;-82
2022/01/30 11:59:49;;;;;;;19.57;3.40;;;6.30;91.70;;;;;;5056278;28;20507;-81
2022/01/30 12:02:28;;;;;;;8.53;3.53;;;6.30;91.70;;;;;;5056667;28;20999;-82
2022/01/30 12:04:58;;;;;;;16.00;3.30;;;6.20;91.60;;;;;;5056777;28;20418;-82
2022/01/30 12:07:46;;;;;;;21.17;4.40;;;6.20;91.90;;;;;;5056246;28;20449;-83
2022/01/30 12:10:21;;;;;;;22.37;3.80;;;6.20;92.20;;;;;;5052412;28;20422;-82
2022/01/30 12:12:52;;;;;;;27.97;3.30;;;6.20;92.10;;;;;;5032451;28;20417;-82
2022/01/30 12:15:37;;;;;;;18.40;3.23;;;6.30;92.40;;;;;;5053137;28;20429;-82
2022/01/30 12:18:06;;;;;;;17.27;4.07;;;6.30;91.80;;;;;;5055849;28;20426;-82
2022/01/30 12:21:04;;;;;;;23.40;3.40;;;6.30;91.90;;;;;;5055199;28;20458;-82
2022/01/30 12:23:33;;;;;;;14.10;3.40;;;6.20;92.20;;;;;;5054768;28;20387;-82
2022/01/30 12:26:15;;;;;;;20.17;3.37;;;6.20;91.90;;;;;;5036744;28;20406;-83
2022/01/30 12:28:40;;;;;;;19.10;3.40;;;6.20;92.00;;;;;;5043842;28;20432;-82
2022/01/30 12:31:30;;;;;;;26.50;4.40;;;6.20;92.10;;;;;;5056718;28;20537;-82
2022/01/30 12:33:59;;;;;;;14.70;3.60;;;6.20;92.10;;;;;;5057075;28;20179;-82
2022/01/30 12:36:24;;;;;;;22.23;3.53;;;6.20;92.30;;;;;;5056821;28;20414;-82
2022/01/30 12:38:55;;;;;;;22.10;4.50;;;6.10;92.10;;;;;;5056733;28;20507;-82
2022/01/30 12:41:23;;;;;;;31.60;4.20;;;6.10;92.30;;;;;;5074377;28;20203;-82
2022/01/30 12:43:58;;;;;;;13.40;3.43;;;6.20;92.50;;;;;;5074859;28;20406;-82
2022/01/30 12:46:26;;;;;;;17.50;3.57;;;6.20;92.30;;;;;;5056269;28;20428;-82
2022/01/30 12:49:14;;;;;;;23.13;3.40;;;6.20;92.10;;;;;;5057163;28;20417;-81
2022/01/30 12:51:42;;;;;;;28.30;5.23;;;6.20;92.40;;;;;;5056321;28;20815;-82
2022/01/30 12:54:08;;;;;;;16.73;3.10;;;6.20;91.70;;;;;;5057686;28;20924;-82
2022/01/30 12:56:35;;;;;;;22.60;3.77;;;6.20;92.10;;;;;;5057027;28;20417;-81
2022/01/30 12:59:07;;;;;;;15.73;3.87;;;6.10;92.10;;;;;;5056578;28;20421;-82
2022/01/30 13:01:40;;;;;;;25.80;5.27;;;6.10;92.10;;;;;;5056211;28;20473;-81
2022/01/30 13:04:09;;;;;;;27.23;6.10;;;6.10;92.30;;;;;;5057250;28;20405;-82
2022/01/30 13:06:46;;;;;;;19.40;3.40;;;6.10;92.50;;;;;;5056539;28;20416;-82
2022/01/30 13:09:17;;;;;;;23.57;4.20;;;6.10;92.60;;;;;;5055584;28;20421;-82
2022/01/30 13:11:43;;;;;;;32.27;6.50;;;6.10;92.60;;;;;;5056069;28;20445;-82
2022/01/30 13:14:09;;;;;;;51.67;15.77;;;6.10;92.70;;;;;;5056445;28;20970;-82
2022/01/30 13:16:47;;;;;;;111.83;28.27;;;6.10;92.60;;;;;;5074301;28;20163;-82
2022/01/30 13:19:32;;;;;;;190.70;47.43;;;6.20;92.70;;;;;;5056499;28;20528;-82
2022/01/30 13:21:58;;;;;;;38.40;8.10;;;6.20;92.90;;;;;;5055469;28;20457;-82
2022/01/30 13:24:25;;;;;;;34.50;9.63;;;6.20;92.60;;;;;;5057285;28;20430;-82
2022/01/30 13:27:05;;;;;;;20.10;4.60;;;6.20;92.40;;;;;;5056093;28;20525;-82
2022/01/30 13:29:34;;;;;;;23.23;5.40;;;6.20;92.50;;;;;;5056341;28;20443;-82
2022/01/30 13:32:11;;;;;;;17.43;4.10;;;6.20;92.90;;;;;;5055627;28;20446;-81
2022/01/30 13:34:37;;;;;;;15.80;3.63;;;6.20;92.70;;;;;;5056200;28;20420;-81
2022/01/30 13:37:15;;;;;;;29.93;4.47;;;6.20;92.60;;;;;;5056353;28;20428;-82
2022/01/30 13:42:45;;;;;;;25.77;3.60;;;6.20;92.70;;;;;;5074773;28;20512;-81
2022/01/30 13:47:56;;;;;;;21.37;3.60;;;6.30;92.80;;;;;;5077341;28;20499;-83
2022/01/30 13:50:27;;;;;;;24.40;4.23;;;6.30;92.50;;;;;;5057299;28;20414;-82
2022/01/30 13:53:25;;;;;;;17.50;4.07;;;6.30;92.50;;;;;;5056341;28;20450;-82
2022/01/30 13:56:02;;;;;;;25.00;5.40;;;6.30;92.10;;;;;;5010679;28;20425;-83
2022/01/30 13:58:50;;;;;;;27.40;6.47;;;6.30;92.10;;;;;;5051589;28;20499;-82